createdAt,value
2023-04-22T00:04:25.365Z,2.13
2023-04-22T00:09:30.442Z,2.47
2023-04-22T00:14:36.594Z,2.17
2023-04-22T00:19:41.091Z,2.50
2023-04-22T00:24:45.974Z,2.28
2023-04-22T00:29:49.563Z,2.80
2023-04-22T00:34:52.775Z,2.22
2023-04-22T00:39:58.023Z,1.92
2023-04-22T00:45:01.802Z,2.38
2023-04-22T00:50:05.649Z,1.92
2023-04-22T00:55:11.534Z,2.20
2023-04-22T01:00:16.503Z,2.50
2023-04-22T01:05:20.092Z,2.30
2023-04-22T01:10:24.999Z,2.13
2023-04-22T01:15:28.898Z,2.40
2023-04-22T01:20:33.130Z,2.67
2023-04-22T01:25:39.000Z,2.22
2023-04-22T01:30:43.550Z,2.10
2023-04-22T01:35:47.761Z,2.13
2023-04-22T01:40:53.014Z,2.00
2023-04-22T01:45:56.445Z,2.25
2023-04-22T01:51:02.058Z,1.90
2023-04-22T01:56:07.362Z,2.22
2023-04-22T02:01:11.820Z,2.47
2023-04-22T02:06:15.600Z,2.58
2023-04-22T02:11:21.381Z,2.30
2023-04-22T02:16:24.739Z,2.92
2023-04-22T02:21:29.668Z,2.30
2023-04-22T02:26:35.360Z,2.40
2023-04-22T02:31:38.813Z,2.50
2023-04-22T02:36:42.206Z,2.63
2023-04-22T02:41:46.936Z,2.47
2023-04-22T02:46:51.122Z,2.50
2023-04-22T02:51:54.452Z,2.55
2023-04-22T02:56:59.067Z,2.40
2023-04-22T03:02:03.853Z,2.80
2023-04-22T03:07:09.358Z,2.50
2023-04-22T03:12:15.138Z,2.40
2023-04-22T03:17:18.430Z,2.80
2023-04-22T03:22:21.768Z,2.72
2023-04-22T03:27:26.356Z,2.42
2023-04-22T03:32:29.683Z,2.45
2023-04-22T03:37:33.044Z,2.30
2023-04-22T03:42:37.681Z,2.75
2023-04-22T03:47:40.975Z,2.72
2023-04-22T03:52:44.236Z,2.85
2023-04-22T03:57:48.720Z,3.00
2023-04-22T04:02:52.183Z,2.70
2023-04-22T04:07:56.634Z,2.90
2023-04-22T04:13:05.723Z,2.83
2023-04-22T04:18:09.718Z,2.78
2023-04-22T04:23:13.119Z,2.88
2023-04-22T04:28:21.052Z,2.78
2023-04-22T04:33:24.395Z,3.10
2023-04-22T04:38:27.869Z,2.90
2023-04-22T04:43:32.597Z,2.85
2023-04-22T04:48:36.308Z,2.70
2023-04-22T04:53:39.748Z,2.90
2023-04-22T04:58:44.377Z,2.67
2023-04-22T05:03:47.900Z,2.30
2023-04-22T05:08:52.396Z,2.17
2023-04-22T05:13:57.546Z,2.50
2023-04-22T05:19:01.203Z,2.60
2023-04-22T05:24:04.677Z,2.95
2023-04-22T05:29:09.477Z,2.50
2023-04-22T05:34:13.863Z,2.83
2023-04-22T05:39:18.361Z,2.60
2023-04-22T05:44:23.448Z,2.80
2023-04-22T05:49:27.924Z,2.33
2023-04-22T05:54:31.145Z,2.67
2023-04-22T05:59:35.777Z,2.58
2023-04-22T06:04:39.488Z,6.85
2023-04-22T06:09:45.130Z,5.18
2023-04-22T06:14:51.794Z,2.75
2023-04-22T06:19:55.139Z,2.30
2023-04-22T06:24:59.457Z,2.15
2023-04-22T06:30:08.232Z,2.55
2023-04-22T06:35:11.886Z,1.83
2023-04-22T06:40:16.574Z,2.67
2023-04-22T06:45:21.401Z,1.90
2023-04-22T06:50:25.322Z,1.95
2023-04-22T06:55:29.087Z,2.22
2023-04-22T07:00:37.249Z,2.38
2023-04-22T07:05:43.486Z,2.05
2023-04-22T07:10:46.925Z,3.60
2023-04-22T07:15:51.778Z,2.17
2023-04-22T07:20:55.161Z,2.30
2023-04-22T07:25:58.676Z,2.08
2023-04-22T07:31:03.908Z,1.80
2023-04-22T07:36:08.030Z,1.80
2023-04-22T07:41:12.523Z,1.92
2023-04-22T07:46:17.936Z,2.08
2023-04-22T07:51:22.624Z,1.88
2023-04-22T07:56:25.947Z,2.30
2023-04-22T08:01:32.865Z,2.13
2023-04-22T08:06:36.514Z,2.40
2023-04-22T08:11:41.702Z,2.00
2023-04-22T08:16:46.517Z,2.30
2023-04-22T08:21:50.100Z,2.55
2023-04-22T08:26:53.737Z,2.85
2023-04-22T08:31:58.589Z,1.80
2023-04-22T08:37:02.094Z,2.05
2023-04-22T08:42:06.335Z,2.10
2023-04-22T08:47:11.878Z,2.40
2023-04-22T08:52:16.218Z,1.98
2023-04-22T08:57:21.329Z,2.58
2023-04-22T09:02:28.581Z,2.13
2023-04-22T09:07:32.642Z,2.03
2023-04-22T09:12:36.237Z,2.08
2023-04-22T09:17:41.686Z,1.90
2023-04-22T09:22:47.161Z,2.05
2023-04-22T09:27:51.791Z,1.92
2023-04-22T09:32:58.768Z,1.90
2023-04-22T09:38:03.717Z,2.00
2023-04-22T09:43:09.540Z,1.40
2023-04-22T09:48:18.067Z,1.55
2023-04-22T09:53:23.761Z,1.63
2023-04-22T09:58:28.005Z,1.90
2023-04-22T10:03:34.192Z,1.92
2023-04-22T10:08:38.931Z,1.67
2023-04-22T10:13:42.482Z,1.65
2023-04-22T10:18:50.474Z,1.60
2023-04-22T10:23:54.057Z,1.65
2023-04-22T10:28:59.383Z,1.70
2023-04-22T10:34:17.008Z,1.88
2023-04-22T10:39:37.393Z,1.90
2023-04-22T10:44:49.466Z,2.20
2023-04-22T10:50:21.671Z,1.67
2023-04-22T10:55:26.167Z,1.73
2023-04-22T11:00:45.871Z,1.55
2023-04-22T11:06:16.205Z,1.63
2023-04-22T11:11:20.311Z,1.35
2023-04-22T11:16:24.892Z,1.17
2023-04-22T11:21:33.455Z,1.33
2023-04-22T11:26:42.966Z,1.35
2023-04-22T11:31:48.190Z,1.13
2023-04-22T11:36:53.952Z,1.42
2023-04-22T11:41:57.601Z,1.30
2023-04-22T11:47:05.028Z,1.90
2023-04-22T11:52:09.849Z,1.25
2023-04-22T11:57:16.815Z,1.10
2023-04-22T12:02:20.336Z,1.35
2023-04-22T12:07:26.198Z,1.10
2023-04-22T12:12:29.940Z,1.20
2023-04-22T12:17:33.297Z,1.40
2023-04-22T12:22:39.167Z,1.13
2023-04-22T12:27:44.205Z,1.40
2023-04-22T12:32:47.458Z,1.33
2023-04-22T12:37:52.650Z,1.20
2023-04-22T12:42:56.025Z,1.58
2023-04-22T12:47:59.683Z,1.17
2023-04-22T12:53:04.746Z,1.23
2023-04-22T12:58:08.380Z,1.42
2023-04-22T13:03:14.079Z,1.30
2023-04-22T13:08:19.103Z,1.30
2023-04-22T13:13:22.517Z,1.15
2023-04-22T13:18:26.504Z,1.20
2023-04-22T13:23:31.127Z,1.20
2023-04-22T13:28:34.648Z,1.25
2023-04-22T13:33:38.260Z,1.20
2023-04-22T13:38:44.137Z,1.10
2023-04-22T13:43:51.970Z,1.70
2023-04-22T13:48:56.782Z,1.10
2023-04-22T13:54:01.572Z,1.38
2023-04-22T13:59:05.034Z,1.00
2023-04-22T14:04:13.879Z,1.52
2023-04-22T14:09:19.079Z,1.30
2023-04-22T14:14:23.521Z,1.17
2023-04-22T14:19:29.061Z,1.00
2023-04-22T14:24:34.067Z,1.90
2023-04-22T14:29:39.025Z,1.38
2023-04-22T14:34:42.645Z,1.00
2023-04-22T14:39:47.393Z,1.35
2023-04-22T14:44:50.930Z,1.10
2023-04-22T14:49:54.417Z,1.17
2023-04-22T14:55:03.609Z,1.05
2023-04-22T15:00:15.016Z,1.15
2023-04-22T15:05:18.481Z,1.48
2023-04-22T15:10:23.277Z,1.23
2023-04-22T15:15:27.058Z,0.80
2023-04-22T15:20:30.362Z,1.02
2023-04-22T15:25:36.260Z,1.08
2023-04-22T15:30:48.894Z,1.10
2023-04-22T15:35:52.110Z,1.05
2023-04-22T15:40:56.700Z,1.70
2023-04-22T15:45:59.934Z,1.02
2023-04-22T15:51:08.102Z,1.38
2023-04-22T15:56:17.101Z,1.30
2023-04-22T16:01:21.689Z,1.67
2023-04-22T16:06:25.404Z,1.10
2023-04-22T16:11:32.142Z,1.10
2023-04-22T16:16:35.630Z,1.10
2023-04-22T16:21:40.167Z,1.02
2023-04-22T16:26:45.974Z,1.05
2023-04-22T16:31:49.503Z,1.40
2023-04-22T16:36:52.962Z,1.40
2023-04-22T16:41:59.349Z,1.38
2023-04-22T16:47:02.861Z,1.20
2023-04-22T16:52:06.449Z,0.93
2023-04-22T16:57:12.726Z,1.08
2023-04-22T17:02:16.454Z,1.00
2023-04-22T17:07:19.862Z,0.82
2023-04-22T17:12:24.715Z,1.10
2023-04-22T17:17:31.788Z,1.08
2023-04-22T17:22:35.127Z,5.82
2023-04-22T17:27:39.830Z,1.90
2023-04-22T17:32:43.405Z,1.27
2023-04-22T17:37:54.211Z,1.42
2023-04-22T17:42:59.013Z,1.52
2023-04-22T17:48:02.333Z,1.13
2023-04-22T17:53:07.117Z,1.30
2023-04-22T17:58:12.018Z,1.40
2023-04-22T18:03:16.938Z,1.60
2023-04-22T18:08:20.795Z,1.48
2023-04-22T18:13:26.504Z,1.55
2023-04-22T18:18:31.962Z,0.98
2023-04-22T18:23:41.731Z,1.23
2023-04-22T18:28:47.093Z,1.52
2023-04-22T18:33:51.772Z,1.65
2023-04-22T18:38:55.021Z,1.10
2023-04-22T18:44:02.975Z,1.40
2023-04-22T18:49:10.707Z,1.48
2023-04-22T18:54:18.609Z,1.45
2023-04-22T18:59:23.704Z,1.38
2023-04-22T19:04:28.288Z,1.40
2023-04-22T19:09:37.398Z,1.67
2023-04-22T19:14:43.055Z,1.55
2023-04-22T19:19:47.710Z,1.30
2023-04-22T19:24:51.471Z,1.40
2023-04-22T19:29:58.285Z,1.70
2023-04-22T19:35:04.789Z,1.45
2023-04-22T19:40:11.155Z,1.80
2023-04-22T19:45:25.055Z,1.33
2023-04-22T19:50:29.500Z,2.10
2023-04-22T19:55:36.433Z,1.88
2023-04-22T20:00:44.810Z,1.63
2023-04-22T20:05:50.972Z,2.08
2023-04-22T20:10:56.988Z,1.60
2023-04-22T20:16:02.201Z,1.20
2023-04-22T20:21:08.419Z,1.25
2023-04-22T20:26:12.999Z,1.50
2023-04-22T20:31:23.194Z,1.73
2023-04-22T20:36:43.856Z,1.75
2023-04-22T20:41:57.527Z,1.90
2023-04-22T20:47:08.550Z,2.05
2023-04-22T20:52:13.417Z,2.15
2023-04-22T20:57:23.000Z,2.42
2023-04-22T21:02:28.269Z,2.53
2023-04-22T21:07:32.133Z,1.80
2023-04-22T21:12:36.288Z,2.47
2023-04-22T21:17:44.684Z,1.92
2023-04-22T21:22:50.568Z,2.00
2023-04-22T21:28:00.390Z,1.67
2023-04-22T21:33:06.318Z,1.80
2023-04-22T21:38:13.496Z,2.60
2023-04-22T21:43:17.270Z,1.70
2023-04-22T21:48:23.284Z,2.00
2023-04-22T21:53:27.468Z,2.05
2023-04-22T21:58:37.238Z,1.73
2023-04-22T22:03:44.447Z,1.98
2023-04-22T22:08:49.723Z,1.88
2023-04-22T22:14:11.969Z,1.80
2023-04-22T22:19:16.943Z,1.98
2023-04-22T22:24:21.340Z,1.70
2023-04-22T22:29:24.896Z,1.70
2023-04-22T22:34:30.600Z,1.60
2023-04-22T22:39:35.002Z,1.70
2023-04-22T22:44:38.713Z,1.85
2023-04-22T22:49:45.569Z,1.25
2023-04-22T22:54:50.364Z,1.67
2023-04-22T22:59:53.523Z,1.23
2023-04-22T23:04:59.472Z,1.45
2023-04-22T23:10:11.628Z,1.40
2023-04-22T23:15:15.108Z,1.30
2023-04-22T23:20:21.178Z,1.30
2023-04-22T23:25:26.179Z,1.60
2023-04-22T23:30:44.035Z,1.50
2023-04-22T23:35:56.724Z,1.60
2023-04-22T23:41:01.105Z,1.35
2023-04-22T23:46:04.582Z,1.52
2023-04-22T23:51:09.661Z,1.25
2023-04-22T23:56:14.251Z,2.60
